createdAt,value
2018-12-05T00:01:38.592Z,17.40
2018-12-05T00:04:07.668Z,12.00
2018-12-05T00:06:36.895Z,10.07
2018-12-05T00:09:07.325Z,9.43
2018-12-05T00:11:36.515Z,10.57
2018-12-05T00:14:05.891Z,9.53
2018-12-05T00:16:36.147Z,9.63
2018-12-05T00:19:05.307Z,9.50
2018-12-05T00:21:34.488Z,9.50
2018-12-05T00:24:03.814Z,10.10
2018-12-05T00:26:32.996Z,9.60
2018-12-05T00:29:03.180Z,10.20
2018-12-05T00:31:32.408Z,9.57
2018-12-05T00:34:02.184Z,10.17
2018-12-05T00:36:31.391Z,10.10
2018-12-05T00:39:00.897Z,10.67
2018-12-05T00:41:29.981Z,10.90
2018-12-05T00:44:00.253Z,11.00
2018-12-05T00:46:29.352Z,9.87
2018-12-05T00:48:58.542Z,11.37
2018-12-05T00:51:29.588Z,10.83
2018-12-05T00:54:00.338Z,10.47
2018-12-05T00:56:29.647Z,9.73
2018-12-05T00:58:58.816Z,10.13
2018-12-05T01:01:28.055Z,9.87
2018-12-05T01:04:00.116Z,13.63
2018-12-05T01:06:29.207Z,11.53
2018-12-05T01:15:48.358Z,11.50
2018-12-05T01:18:17.621Z,11.33
2018-12-05T01:20:46.715Z,11.73
2018-12-05T01:23:15.917Z,11.80
2018-12-05T01:25:45.111Z,11.53
2018-12-05T01:28:14.219Z,11.23
2018-12-05T01:30:43.466Z,11.03
2018-12-05T01:33:12.571Z,10.27
2018-12-05T01:35:41.780Z,11.60
2018-12-05T01:38:11.856Z,10.87
2018-12-05T01:40:41.097Z,10.17
2018-12-05T01:43:11.277Z,10.83
2018-12-05T01:45:40.433Z,10.63
2018-12-05T01:48:09.598Z,11.00
2018-12-05T01:50:39.077Z,11.17
2018-12-05T01:53:08.435Z,10.67
2018-12-05T01:55:37.632Z,11.50
2018-12-05T01:58:06.739Z,10.50
2018-12-05T02:00:36.913Z,10.00
2018-12-05T02:03:05.992Z,10.67
2018-12-05T02:05:36.182Z,10.23
2018-12-05T02:08:05.359Z,10.60
2018-12-05T02:10:34.502Z,10.53
2018-12-05T02:13:03.580Z,10.60
2018-12-05T02:15:32.804Z,10.70
2018-12-05T02:18:01.886Z,10.63
2018-12-05T02:20:32.090Z,10.47
2018-12-05T02:23:01.276Z,11.80
2018-12-05T02:25:30.472Z,11.00
2018-12-05T02:27:59.592Z,10.70
2018-12-05T02:30:29.798Z,11.20
2018-12-05T02:32:58.921Z,11.43
2018-12-05T02:35:28.146Z,10.87
2018-12-05T02:37:57.582Z,11.27
2018-12-05T02:40:26.744Z,12.50
2018-12-05T02:42:55.866Z,11.97
2018-12-05T02:45:24.983Z,11.37
2018-12-05T02:47:55.736Z,11.10
2018-12-05T02:50:24.834Z,11.30
2018-12-05T02:52:55.026Z,11.17
2018-12-05T02:55:24.210Z,11.60
2018-12-05T02:57:53.318Z,11.73
2018-12-05T03:00:22.558Z,11.73
2018-12-05T03:02:51.689Z,10.33
2018-12-05T03:05:20.866Z,11.13
2018-12-05T03:07:49.954Z,11.00
2018-12-05T03:10:19.098Z,10.97
2018-12-05T03:12:48.210Z,10.83
2018-12-05T03:15:18.353Z,11.10
2018-12-05T03:17:47.538Z,11.20
2018-12-05T03:20:16.740Z,10.37
2018-12-05T03:22:45.874Z,11.10
2018-12-05T03:25:15.192Z,11.23
2018-12-05T03:27:44.284Z,10.93
2018-12-05T03:30:15.572Z,10.70
2018-12-05T03:32:44.683Z,10.43
2018-12-05T03:35:13.850Z,9.87
2018-12-05T03:37:42.964Z,10.13
2018-12-05T03:40:12.186Z,9.37
2018-12-05T03:42:41.426Z,9.87
2018-12-05T03:45:10.674Z,10.37
2018-12-05T03:47:39.904Z,10.30
2018-12-05T03:50:09.024Z,9.50
2018-12-05T03:52:38.166Z,10.30
2018-12-05T03:55:07.297Z,10.40
2018-12-05T03:57:36.362Z,9.93
2018-12-05T04:00:05.809Z,10.33
2018-12-05T04:02:34.913Z,8.93
2018-12-05T04:05:04.552Z,9.73
2018-12-05T04:07:33.644Z,9.10
2018-12-05T04:10:04.397Z,9.47
2018-12-05T04:12:40.565Z,9.43
2018-12-05T04:15:05.582Z,9.80
2018-12-05T04:17:35.847Z,9.93
2018-12-05T04:20:05.569Z,10.67
2018-12-05T04:22:34.869Z,9.57
2018-12-05T04:25:04.215Z,9.30
2018-12-05T04:27:33.401Z,9.30
2018-12-05T04:30:02.619Z,9.97
2018-12-05T04:32:31.711Z,10.03
2018-12-05T04:35:02.000Z,9.90
2018-12-05T04:37:31.336Z,9.37
2018-12-05T04:40:00.638Z,10.20
2018-12-05T04:42:29.734Z,9.93
2018-12-05T04:44:58.792Z,9.53
2018-12-05T04:47:27.998Z,10.00
2018-12-05T04:49:57.132Z,9.97
2018-12-05T04:52:26.296Z,9.63
2018-12-05T04:54:55.515Z,10.33
2018-12-05T04:57:24.631Z,10.10
2018-12-05T04:59:54.812Z,9.20
2018-12-05T05:02:23.982Z,9.53
2018-12-05T05:04:53.128Z,9.90
2018-12-05T05:07:22.257Z,9.97
2018-12-05T05:09:51.544Z,9.67
2018-12-05T05:12:21.073Z,10.30
2018-12-05T05:14:50.234Z,10.63
2018-12-05T05:17:19.367Z,9.87
2018-12-05T05:19:48.541Z,9.80
2018-12-05T05:22:17.682Z,9.73
2018-12-05T05:24:46.876Z,9.60
2018-12-05T05:27:16.062Z,10.07
2018-12-05T05:29:45.173Z,9.97
2018-12-05T05:32:14.393Z,10.57
2018-12-05T05:34:43.505Z,9.57
2018-12-05T05:37:12.822Z,10.03
2018-12-05T05:39:41.945Z,9.80
2018-12-05T05:42:11.072Z,9.87
2018-12-05T05:44:40.749Z,10.80
2018-12-05T05:47:09.902Z,10.10
2018-12-05T05:49:39.227Z,10.30
2018-12-05T05:52:08.361Z,9.63
2018-12-05T05:54:38.529Z,10.07
2018-12-05T05:57:07.893Z,10.00
2018-12-05T05:59:37.021Z,9.73
2018-12-05T06:02:07.191Z,10.03
2018-12-05T06:04:36.549Z,9.43
2018-12-05T06:07:05.713Z,10.47
2018-12-05T06:09:34.832Z,9.37
2018-12-05T06:12:05.002Z,9.90
2018-12-05T06:14:34.338Z,9.67
2018-12-05T06:17:03.519Z,10.03
2018-12-05T06:19:32.702Z,9.73
2018-12-05T06:22:01.849Z,9.83
2018-12-05T06:24:31.030Z,10.10
2018-12-05T06:27:00.712Z,9.67
2018-12-05T06:29:32.049Z,9.20
2018-12-05T06:32:02.034Z,9.23
2018-12-05T06:34:31.379Z,9.63
2018-12-05T06:37:00.508Z,9.97
2018-12-05T06:39:29.696Z,8.77
2018-12-05T06:41:58.768Z,9.60
2018-12-05T06:44:27.947Z,10.10
2018-12-05T06:46:57.120Z,9.43
2018-12-05T06:49:26.365Z,9.77
2018-12-05T06:51:55.542Z,9.50
2018-12-05T06:54:24.712Z,9.27
2018-12-05T06:56:54.031Z,9.20
2018-12-05T06:59:23.329Z,9.87
2018-12-05T07:01:52.418Z,9.80
2018-12-05T07:04:21.688Z,9.57
2018-12-05T07:06:50.795Z,9.90
2018-12-05T07:09:22.007Z,10.40
2018-12-05T07:11:51.264Z,10.73
2018-12-05T07:14:21.576Z,10.30
2018-12-05T07:16:50.695Z,9.90
2018-12-05T07:19:22.566Z,10.17
2018-12-05T07:21:51.726Z,9.90
2018-12-05T07:24:26.319Z,9.90
2018-12-05T07:26:55.516Z,9.90
2018-12-05T07:29:24.696Z,9.90
2018-12-05T07:31:54.900Z,10.33
2018-12-05T07:34:24.063Z,9.67
2018-12-05T07:36:53.274Z,10.37
2018-12-05T07:39:22.595Z,9.77
2018-12-05T07:41:52.859Z,9.80
2018-12-05T07:44:22.978Z,9.83
2018-12-05T07:46:52.117Z,9.87
2018-12-05T07:49:21.388Z,9.63
2018-12-05T07:51:50.710Z,10.53
2018-12-05T07:54:20.973Z,9.87
2018-12-05T07:56:51.239Z,10.53
2018-12-05T07:59:20.536Z,10.20
2018-12-05T08:01:49.674Z,10.73
2018-12-05T08:04:18.847Z,9.00
2018-12-05T08:06:47.999Z,9.80
2018-12-05T08:09:17.606Z,10.17
2018-12-05T08:11:46.837Z,10.40
2018-12-05T08:14:15.931Z,10.47
2018-12-05T08:16:46.172Z,11.17
2018-12-05T08:19:15.286Z,10.87
2018-12-05T08:21:45.503Z,10.97
2018-12-05T08:24:14.646Z,10.90
2018-12-05T08:26:43.781Z,10.50
2018-12-05T08:29:12.882Z,11.23
2018-12-05T08:31:43.052Z,10.40
2018-12-05T08:34:12.202Z,10.37
2018-12-05T08:36:42.547Z,11.07
2018-12-05T08:39:11.642Z,11.13
2018-12-05T08:41:41.902Z,11.30
2018-12-05T08:44:11.134Z,11.13
2018-12-05T08:46:40.436Z,10.93
2018-12-05T08:49:11.686Z,11.00
2018-12-05T08:51:40.818Z,11.97
2018-12-05T08:54:10.182Z,10.97
2018-12-05T08:56:39.413Z,12.10
2018-12-05T08:59:08.530Z,11.30
2018-12-05T09:01:37.757Z,11.40
2018-12-05T09:04:07.125Z,11.80
2018-12-05T09:06:38.324Z,11.47
2018-12-05T09:09:08.311Z,11.50
2018-12-05T09:11:37.771Z,11.53
2018-12-05T09:14:07.085Z,11.40
2018-12-05T09:16:36.331Z,10.93
2018-12-05T09:19:05.556Z,11.63
2018-12-05T09:21:34.664Z,11.43
2018-12-05T09:24:03.768Z,11.33
2018-12-05T09:26:34.001Z,12.60
2018-12-05T09:29:04.271Z,12.53
2018-12-05T09:31:33.377Z,12.27
2018-12-05T09:34:02.752Z,12.53
2018-12-05T09:36:32.665Z,12.27
2018-12-05T09:39:02.122Z,12.50
2018-12-05T09:41:31.208Z,12.43
2018-12-05T09:44:00.413Z,12.03
2018-12-05T09:46:30.700Z,12.83
2018-12-05T09:48:59.772Z,12.03
2018-12-05T09:51:28.941Z,11.87
2018-12-05T09:53:58.113Z,12.00
2018-12-05T09:56:27.296Z,12.80
2018-12-05T09:58:56.815Z,11.97
2018-12-05T10:01:25.975Z,12.20
2018-12-05T10:03:55.623Z,11.73
2018-12-05T10:06:24.790Z,12.30
2018-12-05T10:08:54.063Z,11.83
2018-12-05T10:11:24.141Z,12.00
2018-12-05T10:13:53.385Z,11.03
2018-12-05T10:16:22.641Z,11.07
2018-12-05T10:18:51.803Z,10.43
2018-12-05T10:21:20.981Z,10.57
2018-12-05T10:23:50.133Z,9.97
2018-12-05T10:26:19.254Z,10.03
2018-12-05T10:28:48.522Z,10.23
2018-12-05T10:31:18.718Z,9.20
2018-12-05T10:33:47.803Z,9.67
2018-12-05T10:36:17.005Z,9.93
2018-12-05T10:38:46.139Z,9.33
2018-12-05T10:41:15.410Z,9.27
2018-12-05T10:43:44.569Z,9.33
2018-12-05T10:46:13.697Z,9.87
2018-12-05T10:48:43.828Z,9.20
2018-12-05T10:51:13.024Z,9.23
2018-12-05T10:53:42.209Z,9.17
2018-12-05T10:56:11.481Z,8.07
2018-12-05T10:58:40.582Z,8.30
2018-12-05T11:01:15.009Z,8.50
2018-12-05T11:03:44.134Z,7.83
2018-12-05T11:06:18.710Z,8.80
2018-12-05T11:08:53.475Z,8.20
2018-12-05T11:11:27.852Z,9.10
2018-12-05T11:14:04.107Z,8.13
2018-12-05T11:16:41.506Z,8.20
2018-12-05T11:19:16.139Z,8.13
2018-12-05T11:21:50.866Z,8.50
2018-12-05T11:24:25.525Z,7.57
2018-12-05T11:26:54.739Z,8.03
2018-12-05T11:29:24.363Z,7.80
2018-12-05T11:31:53.534Z,7.20
2018-12-05T11:34:23.316Z,7.23
2018-12-05T11:36:52.465Z,7.73
2018-12-05T11:39:21.771Z,7.33
2018-12-05T11:41:50.899Z,6.90
2018-12-05T11:44:20.310Z,7.63
2018-12-05T11:46:49.598Z,7.43
2018-12-05T11:49:19.939Z,6.70
2018-12-05T11:51:49.266Z,7.20
2018-12-05T11:54:18.444Z,7.10
2018-12-05T11:56:48.404Z,6.63
2018-12-05T11:59:37.138Z,6.60
2018-12-05T12:02:07.556Z,7.23
2018-12-05T12:04:38.406Z,7.10
2018-12-05T12:07:08.536Z,6.73
2018-12-05T12:16:28.522Z,6.37
2018-12-05T12:18:59.218Z,6.27
2018-12-05T12:21:28.354Z,6.50
2018-12-05T12:23:57.644Z,6.73
2018-12-05T12:26:32.992Z,6.43
2018-12-05T12:28:58.156Z,6.00
2018-12-05T12:31:27.350Z,5.70
2018-12-05T12:33:56.522Z,5.70
2018-12-05T12:36:25.660Z,6.20
2018-12-05T12:38:54.825Z,5.13
2018-12-05T12:41:23.968Z,6.00
2018-12-05T12:43:53.312Z,5.87
2018-12-05T12:46:23.086Z,5.77
2018-12-05T12:48:52.284Z,5.50
2018-12-05T12:51:23.654Z,5.53
2018-12-05T12:53:53.139Z,5.83
2018-12-05T12:56:23.363Z,5.13
2018-12-05T12:58:53.591Z,5.30
2018-12-05T13:01:22.723Z,5.47
2018-12-05T13:03:52.074Z,6.00
2018-12-05T13:06:21.221Z,5.50
2018-12-05T13:08:51.411Z,5.70
2018-12-05T13:11:20.745Z,5.97
2018-12-05T13:13:50.071Z,6.00
2018-12-05T13:16:19.336Z,5.67
2018-12-05T13:18:49.511Z,5.40
2018-12-05T13:21:18.703Z,5.10
2018-12-05T13:23:48.944Z,5.87
2018-12-05T13:26:18.069Z,5.87
2018-12-05T13:28:47.251Z,6.23
2018-12-05T13:31:16.364Z,6.03
2018-12-05T13:33:45.692Z,5.93
2018-12-05T13:36:14.826Z,5.90
2018-12-05T13:38:45.033Z,6.03
2018-12-05T13:41:14.240Z,5.63
2018-12-05T13:43:43.370Z,5.73
2018-12-05T13:46:13.543Z,5.63
2018-12-05T13:48:42.663Z,6.00
2018-12-05T13:51:11.951Z,5.90
2018-12-05T13:53:41.254Z,5.77
2018-12-05T13:56:11.407Z,5.87
2018-12-05T13:58:40.598Z,5.20
2018-12-05T14:01:09.871Z,5.90
2018-12-05T14:03:39.052Z,6.00
2018-12-05T14:06:08.271Z,6.43
2018-12-05T14:08:37.449Z,5.80
2018-12-05T14:11:07.819Z,6.37
2018-12-05T14:13:36.932Z,6.03
2018-12-05T14:16:06.120Z,5.30
2018-12-05T14:18:35.371Z,5.97
2018-12-05T14:21:08.244Z,5.70
2018-12-05T14:23:37.675Z,5.30
2018-12-05T14:26:06.941Z,5.37
2018-12-05T14:28:36.075Z,5.37
2018-12-05T14:31:05.204Z,5.20
2018-12-05T14:33:35.513Z,5.50
2018-12-05T14:36:04.937Z,5.87
2018-12-05T14:38:34.191Z,5.60
2018-12-05T14:41:03.344Z,5.50
2018-12-05T14:43:33.541Z,5.60
2018-12-05T14:46:02.802Z,5.30
2018-12-05T14:48:32.199Z,4.97
2018-12-05T14:51:01.344Z,5.30
2018-12-05T14:53:30.490Z,4.73
2018-12-05T14:55:59.670Z,4.80
2018-12-05T14:58:28.957Z,5.03
2018-12-05T15:00:58.146Z,4.50
2018-12-05T15:03:27.924Z,4.43
2018-12-05T15:05:57.109Z,4.90
2018-12-05T15:08:26.230Z,4.87
2018-12-05T15:10:55.493Z,4.90
2018-12-05T15:13:24.633Z,4.63
2018-12-05T15:15:53.936Z,4.27
2018-12-05T15:18:23.087Z,5.03
2018-12-05T15:20:52.452Z,4.73
2018-12-05T15:23:21.585Z,5.03
2018-12-05T15:25:50.760Z,5.03
2018-12-05T15:28:20.134Z,4.50
2018-12-05T15:30:49.268Z,4.57
2018-12-05T15:33:18.532Z,5.00
2018-12-05T15:35:47.726Z,4.87
2018-12-05T15:38:16.958Z,4.67
2018-12-05T15:40:46.166Z,4.50
2018-12-05T15:43:15.495Z,4.70
2018-12-05T15:45:44.685Z,4.90
2018-12-05T15:48:13.814Z,4.70
2018-12-05T15:50:44.028Z,5.03
2018-12-05T15:53:13.158Z,5.23
2018-12-05T15:55:42.393Z,4.77
2018-12-05T15:58:11.709Z,4.90
2018-12-05T16:00:40.876Z,4.90
2018-12-05T16:03:10.090Z,5.17
2018-12-05T16:05:39.432Z,5.43
2018-12-05T16:08:08.729Z,4.87
2018-12-05T16:10:37.849Z,5.20
2018-12-05T16:13:07.020Z,4.80
2018-12-05T16:15:39.922Z,4.67
2018-12-05T16:18:10.184Z,4.73
2018-12-05T16:20:39.373Z,5.27
2018-12-05T16:23:08.547Z,4.83
2018-12-05T16:25:37.857Z,5.33
2018-12-05T16:28:08.564Z,5.60
2018-12-05T16:30:37.793Z,5.53
2018-12-05T16:33:07.060Z,4.93
2018-12-05T16:35:39.100Z,5.33
2018-12-05T16:38:21.417Z,5.47
2018-12-05T16:40:50.558Z,7.20
2018-12-05T16:43:19.743Z,6.60
2018-12-05T16:45:48.890Z,7.53
2018-12-05T16:48:18.016Z,6.33
2018-12-05T16:50:47.154Z,6.27
2018-12-05T16:53:16.434Z,6.63
2018-12-05T16:55:45.571Z,7.00
2018-12-05T16:58:14.698Z,7.00
2018-12-05T17:00:43.806Z,6.63
2018-12-05T17:03:13.071Z,6.97
2018-12-05T17:05:42.174Z,6.40
2018-12-05T17:08:11.395Z,6.17
2018-12-05T17:10:40.539Z,6.20
2018-12-05T17:13:11.829Z,6.67
2018-12-05T17:15:40.953Z,7.90
2018-12-05T17:18:10.150Z,7.10
2018-12-05T17:20:39.495Z,6.43
2018-12-05T17:23:08.776Z,6.17
2018-12-05T17:25:38.002Z,6.53
2018-12-05T17:28:07.173Z,6.70
2018-12-05T17:30:36.538Z,6.90
2018-12-05T17:33:05.624Z,6.50
2018-12-05T17:35:34.833Z,6.30
2018-12-05T17:38:03.923Z,5.97
2018-12-05T17:40:33.144Z,6.17
2018-12-05T17:43:02.426Z,6.27
2018-12-05T17:45:33.640Z,7.43
2018-12-05T17:48:03.042Z,7.33
2018-12-05T17:50:32.142Z,7.73
2018-12-05T17:53:01.274Z,7.73
2018-12-05T17:55:30.654Z,7.03
2018-12-05T17:57:59.970Z,6.77
2018-12-05T18:00:29.301Z,7.10
2018-12-05T18:02:58.376Z,8.10
2018-12-05T18:05:28.583Z,6.97
2018-12-05T18:07:57.832Z,7.00
2018-12-05T18:10:27.095Z,6.83
2018-12-05T18:12:56.181Z,7.17
2018-12-05T18:15:27.591Z,7.07
2018-12-05T18:17:56.813Z,6.83
2018-12-05T18:20:26.394Z,6.63
2018-12-05T18:22:56.413Z,6.57
2018-12-05T18:25:25.665Z,6.43
2018-12-05T18:27:54.999Z,6.53
2018-12-05T18:30:24.210Z,5.93
2018-12-05T18:32:53.535Z,5.80
2018-12-05T18:35:22.699Z,5.77
2018-12-05T18:37:51.809Z,5.30
2018-12-05T18:40:21.021Z,5.60
2018-12-05T18:42:50.131Z,5.53
2018-12-05T18:45:19.398Z,5.40
2018-12-05T18:47:48.850Z,5.60
2018-12-05T18:50:18.109Z,5.70
2018-12-05T18:52:47.408Z,5.13
2018-12-05T18:55:16.612Z,5.27
2018-12-05T18:57:45.961Z,5.40
2018-12-05T19:00:15.424Z,5.07
2018-12-05T19:02:44.742Z,5.30
2018-12-05T19:05:14.086Z,5.60
2018-12-05T19:07:43.332Z,5.30
2018-12-05T19:10:12.723Z,5.47
2018-12-05T19:12:41.969Z,6.03
2018-12-05T19:15:11.189Z,5.83
2018-12-05T19:17:40.478Z,4.90
2018-12-05T19:20:10.378Z,5.97
2018-12-05T19:22:40.472Z,5.97
2018-12-05T19:25:09.949Z,5.87
2018-12-05T19:27:39.391Z,5.80
2018-12-05T19:30:09.348Z,6.33
2018-12-05T19:32:38.499Z,5.50
2018-12-05T19:35:07.778Z,6.00
2018-12-05T19:37:36.911Z,5.70
2018-12-05T19:40:06.656Z,5.50
2018-12-05T19:42:35.821Z,5.77
2018-12-05T19:45:05.589Z,5.40
2018-12-05T19:47:34.714Z,6.30
2018-12-05T19:50:04.837Z,6.00
2018-12-05T19:52:35.901Z,6.27
2018-12-05T19:55:05.527Z,6.23
2018-12-05T19:57:35.072Z,6.67
2018-12-05T20:00:05.093Z,6.40
2018-12-05T20:02:34.251Z,5.73
2018-12-05T20:05:04.988Z,6.20
2018-12-05T20:07:34.875Z,6.00
2018-12-05T20:10:04.791Z,5.77
2018-12-05T20:12:34.001Z,6.40
2018-12-05T20:15:03.235Z,6.47
2018-12-05T20:17:32.653Z,6.00
2018-12-05T20:20:03.011Z,5.67
2018-12-05T20:22:33.566Z,5.57
2018-12-05T20:25:03.215Z,5.77
2018-12-05T20:27:32.373Z,5.67
2018-12-05T20:30:02.850Z,6.10
2018-12-05T20:32:32.244Z,5.47
2018-12-05T20:35:01.547Z,5.60
2018-12-05T20:37:31.071Z,5.40
2018-12-05T20:40:00.486Z,4.93
2018-12-05T20:42:29.869Z,5.00
2018-12-05T20:44:59.048Z,5.53
2018-12-05T20:47:28.227Z,5.53
2018-12-05T20:49:58.476Z,5.10
2018-12-05T20:52:28.248Z,5.40
2018-12-05T20:54:58.440Z,5.13
2018-12-05T20:57:27.576Z,4.93
2018-12-05T20:59:57.836Z,5.00
2018-12-05T21:02:28.040Z,5.00
2018-12-05T21:04:58.137Z,4.57
2018-12-05T21:07:27.431Z,4.90
2018-12-05T21:09:56.576Z,4.80
2018-12-05T21:12:26.071Z,4.57
2018-12-05T21:14:56.776Z,4.50
2018-12-05T21:17:27.051Z,5.43
2018-12-05T21:19:56.430Z,5.80
2018-12-05T21:22:25.697Z,4.70
2018-12-05T21:24:54.865Z,4.43
2018-12-05T21:27:25.264Z,5.00
2018-12-05T21:29:54.485Z,4.40
2018-12-05T21:32:23.945Z,4.60
2018-12-05T21:34:53.371Z,4.37
2018-12-05T21:37:22.558Z,4.70
2018-12-05T21:39:51.866Z,4.40
2018-12-05T21:42:22.052Z,5.20
2018-12-05T21:44:55.406Z,4.80
2018-12-05T21:47:25.582Z,5.20
2018-12-05T21:49:55.855Z,5.17
2018-12-05T21:52:27.413Z,5.00
2018-12-05T21:54:56.632Z,4.37
2018-12-05T21:57:26.904Z,4.60
2018-12-05T21:59:56.041Z,4.93
2018-12-05T22:02:25.257Z,5.20
2018-12-05T22:04:54.576Z,4.60
2018-12-05T22:07:23.700Z,4.70
2018-12-05T22:09:53.157Z,4.50
2018-12-05T22:12:22.332Z,4.87
2018-12-05T22:14:51.549Z,5.13
2018-12-05T22:17:20.843Z,5.20
2018-12-05T22:19:50.653Z,4.70
2018-12-05T22:22:19.769Z,5.10
2018-12-05T22:24:50.274Z,5.23
2018-12-05T22:27:19.515Z,5.10
2018-12-05T22:29:49.729Z,5.10
2018-12-05T22:32:19.168Z,5.27
2018-12-05T22:34:48.251Z,5.07
2018-12-05T22:37:18.449Z,5.37
2018-12-05T22:39:47.712Z,5.70
2018-12-05T22:42:17.027Z,5.20
2018-12-05T22:44:46.342Z,5.30
2018-12-05T22:47:18.223Z,5.33
2018-12-05T22:49:47.427Z,5.10
2018-12-05T22:52:16.878Z,5.00
2018-12-05T22:54:46.063Z,5.47
2018-12-05T22:57:15.866Z,5.60
2018-12-05T22:59:47.167Z,5.57
2018-12-05T23:02:17.939Z,6.03
2018-12-05T23:04:47.134Z,5.40
2018-12-05T23:07:16.351Z,5.77
2018-12-05T23:09:45.444Z,5.63
2018-12-05T23:12:14.815Z,6.17
2018-12-05T23:14:43.920Z,6.67
2018-12-05T23:17:13.056Z,6.57
2018-12-05T23:19:42.170Z,6.67
2018-12-05T23:22:11.338Z,6.77
2018-12-05T23:24:40.901Z,6.20
2018-12-05T23:27:11.073Z,7.27
2018-12-05T23:29:40.270Z,7.07
2018-12-05T23:32:09.451Z,6.90
2018-12-05T23:34:38.583Z,7.13
2018-12-05T23:37:08.107Z,6.87
2018-12-05T23:39:37.240Z,7.63
2018-12-05T23:42:06.908Z,7.80
2018-12-05T23:44:36.174Z,8.57
2018-12-05T23:47:06.340Z,8.27
2018-12-05T23:49:35.474Z,7.90
2018-12-05T23:52:04.614Z,8.57
2018-12-05T23:54:33.852Z,8.20
2018-12-05T23:57:03.025Z,8.33
2018-12-05T23:59:32.910Z,8.70
